createdAt,value
2018-07-01T00:05:16.258Z,30.80
2018-07-01T00:07:56.280Z,31.00
2018-07-01T00:10:30.096Z,31.00
2018-07-01T00:13:00.077Z,30.90
2018-07-01T00:15:29.964Z,31.90
2018-07-01T00:18:08.876Z,33.80
2018-07-01T00:20:38.762Z,32.60
2018-07-01T00:23:14.375Z,33.90
2018-07-01T00:25:47.054Z,34.50
2018-07-01T00:28:17.097Z,35.20
2018-07-01T00:30:47.048Z,35.50
2018-07-01T00:33:17.325Z,36.60
2018-07-01T00:35:48.064Z,36.90
2018-07-01T00:38:20.812Z,37.20
2018-07-01T00:40:51.173Z,37.10
2018-07-01T00:43:24.371Z,37.20
2018-07-01T00:46:02.467Z,37.10
2018-07-01T00:48:32.846Z,36.60
2018-07-01T00:51:12.895Z,36.20
2018-07-01T00:53:46.954Z,37.20
2018-07-01T00:56:16.949Z,37.50
2018-07-01T00:58:47.739Z,37.70
2018-07-01T01:01:19.862Z,37.40
2018-07-01T01:03:53.507Z,38.30
2018-07-01T01:06:31.819Z,38.80
2018-07-01T01:09:01.785Z,38.20
2018-07-01T01:11:31.721Z,38.10
2018-07-01T01:14:05.997Z,38.10
2018-07-01T01:16:36.320Z,38.20
2018-07-01T01:19:07.232Z,39.30
2018-07-01T01:21:41.205Z,40.80
2018-07-01T01:24:11.141Z,39.70
2018-07-01T01:26:41.208Z,39.50
2018-07-01T01:29:11.438Z,40.40
2018-07-01T01:31:41.457Z,40.00
2018-07-01T01:34:11.588Z,39.50
2018-07-01T01:36:42.852Z,40.40
2018-07-01T01:39:15.730Z,40.40
2018-07-01T01:41:51.148Z,40.80
2018-07-01T01:44:55.919Z,40.70
2018-07-01T01:47:31.182Z,40.60
2018-07-01T01:51:07.829Z,40.00
2018-07-01T01:53:41.624Z,41.90
2018-07-01T01:56:18.397Z,41.00
2018-07-01T01:58:52.126Z,40.60
2018-07-01T02:01:27.394Z,40.40
2018-07-01T02:04:10.887Z,41.10
2018-07-01T02:06:48.701Z,41.40
2018-07-01T02:09:22.026Z,41.10
2018-07-01T02:11:54.054Z,40.80
2018-07-01T02:14:32.541Z,40.80
2018-07-01T02:17:04.773Z,41.00
2018-07-01T02:19:34.865Z,41.90
2018-07-01T02:22:07.180Z,41.60
2018-07-01T02:24:40.220Z,42.20
2018-07-01T02:27:17.839Z,43.30
2018-07-01T02:29:47.889Z,43.20
2018-07-01T02:32:21.263Z,43.00
2018-07-01T02:34:55.170Z,42.50
2018-07-01T02:37:31.305Z,43.50
2018-07-01T02:40:16.996Z,42.40
2018-07-01T02:42:47.097Z,42.90
2018-07-01T02:45:17.028Z,42.20
2018-07-01T02:47:46.960Z,42.30
2018-07-01T02:50:16.877Z,42.60
2018-07-01T02:52:46.989Z,42.70
2018-07-01T02:55:17.389Z,42.70
2018-07-01T02:57:47.329Z,42.40
2018-07-01T03:00:24.767Z,41.90
2018-07-01T03:03:00.089Z,42.30
2018-07-01T03:05:30.031Z,41.50
2018-07-01T03:08:00.835Z,40.00
2018-07-01T03:10:32.353Z,38.20
2018-07-01T03:13:02.537Z,38.50
2018-07-01T03:15:42.780Z,38.20
2018-07-01T03:18:12.788Z,38.70
2018-07-01T03:20:42.675Z,40.00
2018-07-01T03:23:22.913Z,43.50
2018-07-01T03:25:57.857Z,43.30
2018-07-01T03:28:27.847Z,43.60
2018-07-01T03:30:58.156Z,43.80
2018-07-01T03:33:28.278Z,43.60
2018-07-01T03:35:59.056Z,45.80
2018-07-01T03:38:29.469Z,43.80
2018-07-01T03:40:59.413Z,46.30
2018-07-01T03:43:38.477Z,44.10
2018-07-01T03:48:41.153Z,43.90
2018-07-01T03:51:20.606Z,43.90
2018-07-01T03:53:51.077Z,44.60
2018-07-01T03:56:21.078Z,45.00
2018-07-01T03:58:51.166Z,44.40
2018-07-01T04:01:21.209Z,43.80
2018-07-01T04:03:51.174Z,43.70
2018-07-01T04:06:21.121Z,43.80
2018-07-01T04:08:51.042Z,43.30
2018-07-01T04:11:21.080Z,43.20
2018-07-01T04:13:50.973Z,43.20
2018-07-01T04:16:21.221Z,43.40
2018-07-01T04:18:51.224Z,43.00
2018-07-01T04:21:21.251Z,43.80
2018-07-01T04:23:53.743Z,44.20
2018-07-01T04:26:28.147Z,44.70
2018-07-01T04:28:58.171Z,44.70
2018-07-01T04:31:28.380Z,45.10
2018-07-01T04:33:58.827Z,44.80
2018-07-01T04:36:28.754Z,44.20
2018-07-01T04:38:58.707Z,44.20
2018-07-01T04:41:32.025Z,44.40
2018-07-01T04:44:01.985Z,45.00
2018-07-01T04:46:32.050Z,43.70
2018-07-01T04:49:02.540Z,39.40
2018-07-01T04:51:32.461Z,37.20
2018-07-01T04:54:02.598Z,35.00
2018-07-01T04:56:32.520Z,34.80
2018-07-01T04:59:02.637Z,33.20
2018-07-01T05:01:33.012Z,30.70
2018-07-01T05:04:03.146Z,31.40
2018-07-01T05:06:33.094Z,32.40
2018-07-01T05:09:03.801Z,30.00
2018-07-01T05:11:33.733Z,29.50
2018-07-01T05:14:04.177Z,29.70
2018-07-01T05:19:03.909Z,29.30
2018-07-01T05:21:34.000Z,30.60
2018-07-01T05:24:04.767Z,28.80
2018-07-01T05:26:34.744Z,29.70
2018-07-01T05:29:04.858Z,29.40
2018-07-01T05:31:34.813Z,29.10
2018-07-01T05:34:04.895Z,27.90
2018-07-01T05:36:35.174Z,28.10
2018-07-01T05:39:07.396Z,27.00
2018-07-01T05:41:37.424Z,26.90
2018-07-01T05:44:08.017Z,26.50
2018-07-01T05:46:38.018Z,24.20
2018-07-01T05:49:08.307Z,23.60
2018-07-01T05:51:38.581Z,22.90
2018-07-01T05:54:08.660Z,22.50
2018-07-01T05:56:38.587Z,22.10
2018-07-01T05:59:08.883Z,22.10
2018-07-01T06:01:39.098Z,24.30
2018-07-01T06:04:09.252Z,24.40
2018-07-01T06:06:39.231Z,23.00
2018-07-01T06:09:11.528Z,22.20
2018-07-01T06:11:42.680Z,22.80
2018-07-01T06:14:12.686Z,22.80
2018-07-01T06:16:42.776Z,22.30
2018-07-01T06:19:13.240Z,22.60
2018-07-01T06:21:43.385Z,22.10
2018-07-01T06:24:13.441Z,21.80
2018-07-01T06:26:43.791Z,22.10
2018-07-01T06:29:13.889Z,21.70
2018-07-01T06:31:43.893Z,21.50
2018-07-01T06:34:14.200Z,21.90
2018-07-01T06:36:44.116Z,22.00
2018-07-01T06:39:14.311Z,23.20
2018-07-01T06:41:44.300Z,23.00
2018-07-01T06:44:14.353Z,25.30
2018-07-01T06:46:44.249Z,26.30
2018-07-01T06:49:14.181Z,25.90
2018-07-01T06:51:44.298Z,25.50
2018-07-01T06:54:14.270Z,25.40
2018-07-01T06:56:44.562Z,25.40
2018-07-01T06:59:14.530Z,25.70
2018-07-01T07:01:44.566Z,27.20
2018-07-01T07:04:14.845Z,27.10
2018-07-01T07:06:44.792Z,28.00
2018-07-01T07:09:15.001Z,27.90
2018-07-01T07:14:14.591Z,29.30
2018-07-01T07:16:44.705Z,29.70
2018-07-01T07:19:15.030Z,29.90
2018-07-01T07:21:45.059Z,31.20
2018-07-01T07:24:15.279Z,31.40
2018-07-01T07:26:45.993Z,31.80
2018-07-01T07:29:16.052Z,31.70
2018-07-01T07:31:46.120Z,32.00
2018-07-01T07:34:16.487Z,31.70
2018-07-01T07:36:46.436Z,31.90
2018-07-01T07:39:16.356Z,32.30
2018-07-01T07:41:46.670Z,34.00
2018-07-01T07:44:16.685Z,32.60
2018-07-01T07:46:46.642Z,32.40
2018-07-01T07:49:16.857Z,32.60
2018-07-01T07:51:47.090Z,33.10
2018-07-01T07:54:17.025Z,32.40
2018-07-01T07:56:47.317Z,32.70
2018-07-01T07:59:17.388Z,32.80
2018-07-01T08:01:47.520Z,33.10
2018-07-01T08:04:17.845Z,33.00
2018-07-01T08:06:47.934Z,33.00
2018-07-01T08:09:17.888Z,33.00
2018-07-01T08:11:48.154Z,33.30
2018-07-01T08:14:18.374Z,33.60
2018-07-01T08:16:48.380Z,33.20
2018-07-01T08:19:18.823Z,33.20
2018-07-01T08:21:48.992Z,32.80
2018-07-01T08:24:19.056Z,32.80
2018-07-01T08:26:49.480Z,33.20
2018-07-01T08:29:19.445Z,33.00
2018-07-01T08:31:49.719Z,33.90
2018-07-01T08:34:19.772Z,34.40
2018-07-01T08:36:49.698Z,34.20
2018-07-01T08:39:19.980Z,34.20
2018-07-01T08:42:25.614Z,34.00
2018-07-01T08:44:56.644Z,34.50
2018-07-01T08:47:26.699Z,34.10
2018-07-01T08:49:56.652Z,35.80
2018-07-01T08:52:27.306Z,36.30
2018-07-01T08:54:57.345Z,36.10
2018-07-01T08:57:27.589Z,35.80
2018-07-01T08:59:57.899Z,35.50
2018-07-01T09:02:28.054Z,35.30
2018-07-01T09:04:58.791Z,35.70
2018-07-01T09:07:29.168Z,35.10
2018-07-01T09:09:59.353Z,35.20
2018-07-01T09:12:29.905Z,34.90
2018-07-01T09:15:00.150Z,36.50
2018-07-01T09:17:30.239Z,37.60
2018-07-01T09:20:00.675Z,37.20
2018-07-01T09:22:30.968Z,37.40
2018-07-01T09:25:01.122Z,37.30
2018-07-01T09:27:31.761Z,37.00
2018-07-01T09:30:02.909Z,37.60
2018-07-01T09:32:33.597Z,36.10
2018-07-01T09:35:04.524Z,35.60
2018-07-01T09:37:34.811Z,36.50
2018-07-01T09:40:05.160Z,35.50
2018-07-01T09:42:35.644Z,35.80
2018-07-01T09:45:06.123Z,34.90
2018-07-01T09:47:36.225Z,36.20
2018-07-01T09:50:07.103Z,36.00
2018-07-01T09:52:37.136Z,35.30
2018-07-01T10:01:01.689Z,33.60
2018-07-01T10:06:02.236Z,33.70
2018-07-01T10:08:32.570Z,33.90
2018-07-01T10:11:02.866Z,35.30
2018-07-01T10:13:33.352Z,34.60
2018-07-01T10:16:03.819Z,33.90
2018-07-01T10:18:34.087Z,33.70
2018-07-01T10:21:04.828Z,33.90
2018-07-01T10:23:35.121Z,34.90
2018-07-01T10:26:05.603Z,34.30
2018-07-01T10:28:36.477Z,35.40
2018-07-01T10:31:07.133Z,34.80
2018-07-01T10:33:37.462Z,35.20
2018-07-01T10:36:08.096Z,34.70
2018-07-01T10:38:38.486Z,34.80
2018-07-01T10:41:08.759Z,34.80
2018-07-01T10:43:39.579Z,34.70
2018-07-01T10:46:10.013Z,34.20
2018-07-01T10:48:40.343Z,34.80
2018-07-01T10:51:10.698Z,34.30
2018-07-01T10:53:41.014Z,34.00
2018-07-01T10:56:11.736Z,33.50
2018-07-01T10:58:42.023Z,33.50
2018-07-01T11:01:12.733Z,33.80
2018-07-01T11:03:43.336Z,34.00
2018-07-01T11:06:13.860Z,33.50
2018-07-01T11:08:44.192Z,33.00
2018-07-01T11:11:15.014Z,34.20
2018-07-01T11:13:45.536Z,33.00
2018-07-01T11:16:16.000Z,31.50
2018-07-01T11:18:46.873Z,33.00
2018-07-01T11:21:18.944Z,31.90
2018-07-01T11:23:51.752Z,32.40
2018-07-01T11:26:22.401Z,30.30
2018-07-01T11:28:52.706Z,30.10
2018-07-01T11:31:23.084Z,30.00
2018-07-01T11:33:53.837Z,30.40
2018-07-01T11:36:24.552Z,31.10
2018-07-01T11:38:54.888Z,31.20
2018-07-01T11:41:25.702Z,31.20
2018-07-01T11:43:56.100Z,31.10
2018-07-01T11:46:26.517Z,30.30
2018-07-01T11:48:57.200Z,30.40
2018-07-01T11:51:27.469Z,30.80
2018-07-01T11:53:58.440Z,30.00
2018-07-01T11:56:28.876Z,30.10
2018-07-01T11:58:59.199Z,30.80
2018-07-01T12:01:29.493Z,30.20
2018-07-01T12:04:00.071Z,31.70
2018-07-01T12:06:30.298Z,32.50
2018-07-01T12:09:01.694Z,32.80
2018-07-01T12:11:32.463Z,31.80
2018-07-01T12:14:02.728Z,31.70
2018-07-01T12:16:33.082Z,32.30
2018-07-01T12:19:03.723Z,32.00
2018-07-01T12:22:53.130Z,31.20
2018-07-01T12:25:23.487Z,30.30
2018-07-01T12:27:53.787Z,30.70
2018-07-01T12:30:24.442Z,29.80
2018-07-01T12:32:54.782Z,30.50
2018-07-01T12:35:25.086Z,31.20
2018-07-01T12:37:55.653Z,31.40
2018-07-01T12:40:25.970Z,30.80
2018-07-01T12:42:56.264Z,31.20
2018-07-01T12:45:26.592Z,31.40
2018-07-01T12:47:56.983Z,31.10
2018-07-01T12:50:27.659Z,30.90
2018-07-01T12:52:58.068Z,30.20
2018-07-01T12:55:28.366Z,29.90
2018-07-01T12:57:58.671Z,29.70
2018-07-01T13:00:28.935Z,29.60
2018-07-01T13:02:59.559Z,29.50
2018-07-01T13:05:29.873Z,29.90
2018-07-01T13:08:00.155Z,30.00
2018-07-01T13:10:30.512Z,30.20
2018-07-01T13:13:00.896Z,30.70
2018-07-01T13:15:31.299Z,30.90
2018-07-01T13:18:01.782Z,30.60
2018-07-01T13:20:32.167Z,30.30
2018-07-01T13:23:02.916Z,29.90
2018-07-01T13:25:33.224Z,30.00
2018-07-01T13:28:03.971Z,30.10
2018-07-01T13:30:34.387Z,30.20
2018-07-01T13:33:04.847Z,30.60
2018-07-01T13:35:35.147Z,30.10
2018-07-01T13:38:06.079Z,30.10
2018-07-01T13:40:36.506Z,29.90
2018-07-01T13:43:07.004Z,30.50
2018-07-01T13:45:37.398Z,30.00
2018-07-01T13:48:08.343Z,29.70
2018-07-01T13:50:38.600Z,29.20
2018-07-01T13:53:09.307Z,29.30
2018-07-01T13:55:39.864Z,29.30
2018-07-01T13:58:10.149Z,29.30
2018-07-01T14:00:40.543Z,28.40
2018-07-01T14:03:10.964Z,28.60
2018-07-01T14:05:41.534Z,28.70
2018-07-01T14:08:12.269Z,28.50
2018-07-01T14:10:42.747Z,29.10
2018-07-01T14:13:13.314Z,29.60
2018-07-01T14:15:43.714Z,28.60
2018-07-01T14:18:14.256Z,28.50
2018-07-01T14:20:45.031Z,28.80
2018-07-01T14:23:15.687Z,28.40
2018-07-01T14:25:46.444Z,28.80
2018-07-01T14:28:16.819Z,29.20
2018-07-01T14:30:47.440Z,29.30
2018-07-01T14:33:17.832Z,29.50
2018-07-01T14:35:48.188Z,28.50
2018-07-01T14:38:18.980Z,28.90
2018-07-01T14:40:49.428Z,28.70
2018-07-01T14:43:19.967Z,28.40
2018-07-01T14:45:50.532Z,28.90
2018-07-01T14:48:20.957Z,29.10
2018-07-01T14:50:51.363Z,29.60
2018-07-01T14:53:21.927Z,29.40
2018-07-01T14:55:52.250Z,29.20
2018-07-01T14:58:22.596Z,29.10
2018-07-01T15:00:52.880Z,28.90
2018-07-01T15:03:23.407Z,29.20
2018-07-01T15:05:53.933Z,28.40
2018-07-01T15:08:24.921Z,28.30
2018-07-01T15:10:55.391Z,27.00
2018-07-01T15:13:25.724Z,29.00
2018-07-01T15:15:56.070Z,28.70
2018-07-01T15:18:26.482Z,28.20
2018-07-01T15:20:57.339Z,28.90
2018-07-01T15:23:28.529Z,29.00
2018-07-01T15:26:00.221Z,28.60
2018-07-01T15:28:31.194Z,28.10
2018-07-01T15:31:01.698Z,28.30
2018-07-01T15:33:33.594Z,28.80
2018-07-01T15:36:04.045Z,28.30
2018-07-01T15:38:34.820Z,28.20
2018-07-01T15:41:05.143Z,28.10
2018-07-01T15:43:35.554Z,28.60
2018-07-01T15:46:06.887Z,28.60
2018-07-01T15:48:37.398Z,28.80
2018-07-01T15:51:07.951Z,28.70
2018-07-01T15:53:38.287Z,28.60
2018-07-01T15:56:08.751Z,28.70
2018-07-01T15:58:39.537Z,29.20
2018-07-01T16:01:09.849Z,28.80
2018-07-01T16:03:40.441Z,28.70
2018-07-01T16:06:10.782Z,28.50
2018-07-01T16:08:41.474Z,28.70
2018-07-01T16:11:12.526Z,29.50
2018-07-01T16:13:57.348Z,30.00
2018-07-01T16:16:27.723Z,29.30
2018-07-01T16:18:58.066Z,29.60
2018-07-01T16:21:28.611Z,29.50
2018-07-01T16:23:58.952Z,29.80
2018-07-01T16:26:34.618Z,29.70
2018-07-01T16:29:05.365Z,29.80
2018-07-01T16:31:35.829Z,29.70
2018-07-01T16:34:06.402Z,29.10
2018-07-01T16:36:36.672Z,29.90
2018-07-01T16:39:10.970Z,29.70
2018-07-01T16:41:41.303Z,29.70
2018-07-01T16:44:11.716Z,29.90
2018-07-01T16:46:42.093Z,30.30
2018-07-01T16:49:12.337Z,30.20
2018-07-01T16:51:42.963Z,30.30
2018-07-01T16:54:13.416Z,30.00
2018-07-01T16:56:44.042Z,29.70
2018-07-01T16:59:14.730Z,29.60
2018-07-01T17:01:45.100Z,30.40
2018-07-01T17:04:15.351Z,30.10
2018-07-01T17:06:45.884Z,30.30
2018-07-01T17:09:16.185Z,30.00
2018-07-01T17:11:46.912Z,30.40
2018-07-01T17:14:17.207Z,30.30
2018-07-01T17:16:47.687Z,30.10
2018-07-01T17:19:18.344Z,29.80
2018-07-01T17:21:48.800Z,30.20
2018-07-01T17:24:19.119Z,30.10
2018-07-01T17:26:49.368Z,30.10
2018-07-01T17:29:27.763Z,30.40
2018-07-01T17:32:03.152Z,29.20
2018-07-01T17:37:03.428Z,30.20
2018-07-01T17:39:33.815Z,30.20
2018-07-01T17:42:04.281Z,30.60
2018-07-01T17:44:34.996Z,30.10
2018-07-01T17:47:05.352Z,29.80
2018-07-01T17:49:35.678Z,30.00
2018-07-01T17:52:06.178Z,30.00
2018-07-01T17:54:36.539Z,30.60
2018-07-01T17:57:07.242Z,30.60
2018-07-01T17:59:37.772Z,30.30
2018-07-01T18:02:08.147Z,30.10
2018-07-01T18:04:38.856Z,30.40
2018-07-01T18:07:09.114Z,30.50
2018-07-01T18:09:39.554Z,29.60
2018-07-01T18:12:09.871Z,29.80
2018-07-01T18:14:40.186Z,29.80
2018-07-01T18:17:10.437Z,29.90
2018-07-01T18:19:41.158Z,29.70
2018-07-01T18:22:16.926Z,29.90
2018-07-01T18:24:53.954Z,29.90
2018-07-01T18:27:12.810Z,30.30
2018-07-01T18:29:43.504Z,31.00
2018-07-01T18:32:13.925Z,31.20
2018-07-01T18:34:44.248Z,31.20
2018-07-01T18:37:14.583Z,31.40
2018-07-01T18:39:44.818Z,31.30
2018-07-01T18:42:15.266Z,31.20
2018-07-01T18:44:45.579Z,31.70
2018-07-01T18:47:16.164Z,31.80
2018-07-01T18:49:46.551Z,32.20
2018-07-01T18:52:16.839Z,31.80
2018-07-01T18:54:47.375Z,31.90
2018-07-01T18:57:17.644Z,32.20
2018-07-01T18:59:48.002Z,33.10
2018-07-01T19:02:18.340Z,32.60
2018-07-01T19:04:48.603Z,32.80
2018-07-01T19:07:19.267Z,32.70
2018-07-01T19:09:49.974Z,32.90
2018-07-01T19:12:20.601Z,32.90
2018-07-01T19:14:51.090Z,32.90
2018-07-01T19:17:21.742Z,33.40
2018-07-01T19:19:52.175Z,33.60
2018-07-01T19:22:22.440Z,33.60
2018-07-01T19:24:52.781Z,33.80
2018-07-01T19:27:23.044Z,34.00
2018-07-01T19:29:54.831Z,34.00
2018-07-01T19:32:25.183Z,33.90
2018-07-01T19:34:55.633Z,34.40
2018-07-01T19:37:25.996Z,34.30
2018-07-01T19:39:56.358Z,34.80
2018-07-01T19:42:26.764Z,34.90
2018-07-01T19:44:57.579Z,36.10
2018-07-01T19:47:28.172Z,36.10
2018-07-01T19:49:58.436Z,36.70
2018-07-01T19:52:28.906Z,37.20
2018-07-01T19:54:59.177Z,36.40
2018-07-01T19:57:29.891Z,36.60
2018-07-01T20:00:00.325Z,36.60
2018-07-01T20:02:30.569Z,36.90
2018-07-01T20:05:01.463Z,37.10
2018-07-01T20:07:31.896Z,37.30
2018-07-01T20:10:02.386Z,37.10
2018-07-01T20:12:32.706Z,37.60
2018-07-01T20:15:04.406Z,37.80
2018-07-01T20:17:34.879Z,37.80
2018-07-01T20:20:06.908Z,38.20
2018-07-01T20:22:37.468Z,38.30
2018-07-01T20:25:08.308Z,38.60
2018-07-01T20:27:38.811Z,38.80
2018-07-01T20:30:12.749Z,39.40
2018-07-01T20:32:43.618Z,41.60
2018-07-01T20:35:15.372Z,40.30
2018-07-01T20:37:47.970Z,41.10
2018-07-01T20:40:19.502Z,41.20
2018-07-01T20:42:50.714Z,42.00
2018-07-01T20:45:21.518Z,41.70
2018-07-01T20:47:54.174Z,41.70
2018-07-01T20:50:24.765Z,41.90
2018-07-01T20:52:55.187Z,41.90
2018-07-01T20:55:25.718Z,42.20
2018-07-01T20:57:57.184Z,42.20
2018-07-01T21:00:29.457Z,41.80
2018-07-01T21:03:00.220Z,41.20
2018-07-01T21:05:31.174Z,41.90
2018-07-01T21:08:02.597Z,42.10
2018-07-01T21:10:33.215Z,42.50
2018-07-01T21:13:03.815Z,43.40
2018-07-01T21:15:34.180Z,44.00
2018-07-01T21:18:05.639Z,43.60
2018-07-01T21:23:06.452Z,44.00
2018-07-01T21:25:38.963Z,44.20
2018-07-01T21:28:09.483Z,44.10
2018-07-01T21:30:41.172Z,44.40
2018-07-01T21:33:11.784Z,42.80
2018-07-01T21:35:42.297Z,45.50
2018-07-01T21:38:12.924Z,44.80
2018-07-01T21:40:43.623Z,45.10
2018-07-01T21:43:14.300Z,45.00
2018-07-01T21:45:45.299Z,45.20
2018-07-01T21:48:16.011Z,45.30
2018-07-01T21:50:48.711Z,45.50
2018-07-01T21:53:19.520Z,45.30
2018-07-01T21:55:51.406Z,45.80
2018-07-01T21:58:22.441Z,45.00
2018-07-01T22:00:54.466Z,45.20
2018-07-01T22:03:25.087Z,45.70
2018-07-01T22:05:56.224Z,45.40
2018-07-01T22:08:27.954Z,45.00
2018-07-01T22:11:08.923Z,45.10
2018-07-01T22:14:49.631Z,45.40
2018-07-01T22:17:21.134Z,45.20
2018-07-01T22:19:52.009Z,45.20
2018-07-01T22:22:23.351Z,45.20
2018-07-01T22:24:56.527Z,45.90
2018-07-01T22:27:27.059Z,44.20
2018-07-01T22:29:57.869Z,47.00
2018-07-01T22:32:28.525Z,47.60
2018-07-01T22:34:59.499Z,47.00
2018-07-01T22:37:31.044Z,47.40
2018-07-01T22:40:02.473Z,47.10
2018-07-01T22:42:33.462Z,47.00
2018-07-01T22:45:05.525Z,47.00
2018-07-01T22:47:36.080Z,46.80
2018-07-01T22:50:10.372Z,46.50
2018-07-01T22:52:41.045Z,46.60
2018-07-01T22:55:11.765Z,47.20
2018-07-01T22:57:42.224Z,46.60
2018-07-01T23:00:13.455Z,46.90
2018-07-01T23:05:18.840Z,47.20
2018-07-01T23:07:49.737Z,47.50
2018-07-01T23:10:22.303Z,46.60
2018-07-01T23:12:53.529Z,46.60
2018-07-01T23:15:23.983Z,47.20
2018-07-01T23:17:55.205Z,46.60
2018-07-01T23:20:25.733Z,46.20
2018-07-01T23:22:56.345Z,46.10
2018-07-01T23:25:28.786Z,45.40
2018-07-01T23:27:59.240Z,46.30
2018-07-01T23:30:29.926Z,46.20
2018-07-01T23:33:01.542Z,46.90
2018-07-01T23:35:32.051Z,47.00
2018-07-01T23:38:03.518Z,48.70
2018-07-01T23:40:34.092Z,46.80
2018-07-01T23:43:04.608Z,46.90
2018-07-01T23:45:35.060Z,46.60
2018-07-01T23:50:36.661Z,47.20
2018-07-01T23:53:07.481Z,47.00
2018-07-01T23:55:38.437Z,47.20
2018-07-01T23:58:09.026Z,47.20
